Terminal Aerodrome Forecast
Issued by NWS Austin/San Antonio, TX

Home | Current Version | Previous Version | Text Only | Print | Product List | Glossary On
Versions: 1 2 3 4 5 6 7 8 9 10 11 12 13 14 15 16 17 18 19 20 21 22 23 24 25
000
FTUS44 KEWX 261131
TAFAUS
TAF
KAUS 261131Z 2612/2718 10005KT P6SM FEW015 SCT025 BKN250
     FM261300 10005KT P6SM BKN015 OVC025
     FM261800 12008KT P6SM VCSH SCT030 BKN050
     FM270000 04005KT P6SM OVC050=

USA.gov is the U.S. government's official web portal to all federal, state and local government web resources and services.